Bayside, New York
Current Conditions -  °F | °C
As of 10:51 PM on Monday 20 Oct 2014 (Local Time) from KLGA Reporting Station
Broken Clouds Broken Clouds  
Wind Chill: 14°   Ceiling: 19000
Heat Index: 14°   Visibility: 10mi
Dew Point:   Wind: 7mph
Humidity: 64%   Direction: 190°S
Pressure: 29.97"   Gusts: NA
Location:  40.77°N, 73.78°W
Report Text: KLGA 210251Z 19006KT 10SM FEW130 BKN190 BKN250 14/07 A2997 RMK AO2 SLP149 T01390072 58002
Loading
Personal Weather Stations






























Interactive Weather Map
Tropical Storm Tracking
New forecast layout! Learn more

10-Day Weather Forecast

Advertisements
Track Severe Weather on mobile